Time;durP1;ratioP1;P1;durP2;ratioP2;P2;SDS_P1;SDS_P2;PMS_P1;PMS_P2;Temp;Humidity;BMP_temperature;BMP_pressure;BME280_temperature;BME280_humidity;BME280_pressure;Samples;Min_cycle;Max_cycle;Signal;HPM_P1;HPM_P2
2024/03/14 00:09:10;;;;;;;53.40;33.47;;;;;;;;;;5074735;28;20456;-75
2024/03/14 00:11:36;;;;;;;56.47;34.20;;;;;;;;;;5076448;28;20028;-75
2024/03/14 00:14:03;;;;;;;63.65;36.88;;;;;;;;;;5074138;28;20036;-71
2024/03/14 00:16:28;;;;;;;58.85;34.70;;;;;;;;;;5074316;28;20031;-71
2024/03/14 00:18:53;;;;;;;65.82;38.55;;;;;;;;;;5074017;28;20066;-71
2024/03/14 00:21:20;;;;;;;72.50;42.75;;;;;;;;;;5074231;28;20020;-77
2024/03/14 00:23:46;;;;;;;66.95;40.55;;;;;;;;;;5089649;28;20028;-73
2024/03/14 00:26:12;;;;;;;66.80;39.92;;;;;;;;;;5074317;28;20020;-72
2024/03/14 00:28:39;;;;;;;60.22;34.83;;;;;;;;;;5074192;28;20032;-72
2024/03/14 00:31:04;;;;;;;53.60;33.88;;;;;;;;;;5073144;28;20444;-76
2024/03/14 00:33:32;;;;;;;51.25;33.58;;;;;;;;;;5074075;28;20078;-75
2024/03/14 00:35:58;;;;;;;57.15;34.70;;;;;;;;;;5073060;28;20423;-75
2024/03/14 00:38:23;;;;;;;50.60;32.67;;;;;;;;;;5071919;28;20040;-74
2024/03/14 00:40:49;;;;;;;52.80;31.35;;;;;;;;;;5072654;28;20070;-74
2024/03/14 00:43:14;;;;;;;46.40;29.67;;;;;;;;;;5073656;28;20067;-77
2024/03/14 00:45:40;;;;;;;42.08;28.40;;;;;;;;;;5074350;28;20086;-77
2024/03/14 00:48:07;;;;;;;41.60;26.58;;;;;;;;;;5073567;28;20039;-75
2024/03/14 00:50:35;;;;;;;42.63;27.63;;;;;;;;;;5074211;28;20024;-76
2024/03/14 00:53:03;;;;;;;43.47;27.70;;;;;;;;;;5072303;28;20027;-75
2024/03/14 00:55:29;;;;;;;39.95;27.25;;;;;;;;;;5075988;28;20075;-75
2024/03/14 00:57:54;;;;;;;39.97;27.02;;;;;;;;;;5093708;28;20056;-76
2024/03/14 01:00:23;;;;;;;41.28;26.75;;;;;;;;;;5093910;28;20040;-76
2024/03/14 01:02:54;;;;;;;41.08;26.65;;;;;;;;;;5094160;28;20039;-75
2024/03/14 01:05:20;;;;;;;41.80;26.70;;;;;;;;;;5094208;28;20522;-76
2024/03/14 01:07:46;;;;;;;41.88;27.50;;;;;;;;;;5076295;28;20024;-76
2024/03/14 01:10:11;;;;;;;47.15;29.90;;;;;;;;;;5075213;28;20137;-76
2024/03/14 01:12:37;;;;;;;47.47;29.02;;;;;;;;;;5076328;28;20471;-75
2024/03/14 01:15:06;;;;;;;45.42;30.05;;;;;;;;;;5093923;28;20051;-76
2024/03/14 01:17:31;;;;;;;44.40;29.38;;;;;;;;;;5076103;28;20398;-76
2024/03/14 01:19:56;;;;;;;45.28;29.77;;;;;;;;;;5093650;28;20084;-76
2024/03/14 01:22:22;;;;;;;43.72;28.95;;;;;;;;;;5076274;28;20040;-74
2024/03/14 01:24:48;;;;;;;46.75;29.38;;;;;;;;;;5075964;28;20032;-75
2024/03/14 01:27:16;;;;;;;41.85;28.40;;;;;;;;;;5075345;28;20031;-76
2024/03/14 01:29:41;;;;;;;43.58;27.65;;;;;;;;;;5075569;28;20012;-77
2024/03/14 01:32:06;;;;;;;43.80;28.73;;;;;;;;;;5093885;28;20111;-76
2024/03/14 01:34:32;;;;;;;41.78;27.40;;;;;;;;;;5093892;28;20039;-75
2024/03/14 01:37:01;;;;;;;40.50;27.70;;;;;;;;;;5093534;28;20039;-75
2024/03/14 01:39:27;;;;;;;42.30;27.25;;;;;;;;;;5075336;28;20479;-73
2024/03/14 01:41:52;;;;;;;41.53;28.20;;;;;;;;;;5075761;28;20072;-71
2024/03/14 01:44:20;;;;;;;42.22;28.08;;;;;;;;;;5093322;28;20009;-71
2024/03/14 01:46:45;;;;;;;41.08;29.17;;;;;;;;;;5093719;28;20109;-71
2024/03/14 01:49:13;;;;;;;43.05;28.95;;;;;;;;;;5093473;28;20507;-71
2024/03/14 01:51:39;;;;;;;42.83;28.88;;;;;;;;;;5097216;28;20069;-71
2024/03/14 01:54:04;;;;;;;40.78;28.33;;;;;;;;;;5097046;28;20377;-71
2024/03/14 01:56:31;;;;;;;42.03;28.20;;;;;;;;;;5078993;28;20038;-70
2024/03/14 01:58:56;;;;;;;44.08;28.73;;;;;;;;;;5097513;28;20038;-70
2024/03/14 02:01:23;;;;;;;40.42;26.73;;;;;;;;;;5078483;28;20115;-73
2024/03/14 02:04:15;;;;;;;39.10;26.15;;;;;;;;;;5097187;28;20020;-73
2024/03/14 02:06:52;;;;;;;42.60;26.80;;;;;;;;;;5059065;28;20051;-73
2024/03/14 02:09:22;;;;;;;40.53;26.67;;;;;;;;;;5096888;28;20023;-75
2024/03/14 02:11:48;;;;;;;37.30;25.40;;;;;;;;;;5096832;28;20028;-75
2024/03/14 02:14:13;;;;;;;40.45;26.38;;;;;;;;;;5096490;28;20292;-75
2024/03/14 02:16:38;;;;;;;43.13;26.73;;;;;;;;;;5096549;28;20395;-74
2024/03/14 02:19:07;;;;;;;40.92;27.02;;;;;;;;;;5062354;28;20409;-74
2024/03/14 02:21:33;;;;;;;38.55;25.85;;;;;;;;;;5096651;28;20071;-71
2024/03/14 02:23:58;;;;;;;35.75;24.38;;;;;;;;;;5096732;28;20032;-70
2024/03/14 02:26:23;;;;;;;37.72;26.17;;;;;;;;;;5096334;28;20028;-71
2024/03/14 02:28:50;;;;;;;38.40;25.90;;;;;;;;;;5096382;28;20020;-72
2024/03/14 02:31:15;;;;;;;42.50;27.30;;;;;;;;;;5096898;28;20365;-76
2024/03/14 02:33:40;;;;;;;43.50;27.90;;;;;;;;;;5096445;28;20043;-75
2024/03/14 02:36:06;;;;;;;44.80;28.48;;;;;;;;;;5099024;28;20031;-75
2024/03/14 02:38:33;;;;;;;44.88;28.90;;;;;;;;;;5101508;28;20423;-77
2024/03/14 02:40:59;;;;;;;44.50;28.08;;;;;;;;;;5100597;28;20502;-77
2024/03/14 02:43:25;;;;;;;49.00;30.25;;;;;;;;;;5098650;28;20024;-76
2024/03/14 02:45:51;;;;;;;44.83;29.75;;;;;;;;;;5079059;28;20036;-76
2024/03/14 02:48:16;;;;;;;41.58;28.35;;;;;;;;;;5096832;28;20016;-76
2024/03/14 02:50:41;;;;;;;36.72;25.52;;;;;;;;;;5078414;28;20028;-76
2024/03/14 02:53:07;;;;;;;37.55;25.15;;;;;;;;;;5096420;28;20032;-75
2024/03/14 02:55:33;;;;;;;37.65;25.50;;;;;;;;;;5058008;28;20047;-75
2024/03/14 02:58:01;;;;;;;32.85;23.83;;;;;;;;;;5074407;28;20020;-75
2024/03/14 03:00:26;;;;;;;34.65;23.98;;;;;;;;;;5075467;28;20032;-74
2024/03/14 03:02:52;;;;;;;35.25;23.80;;;;;;;;;;5073943;28;20025;-74
2024/03/14 03:05:17;;;;;;;32.72;23.23;;;;;;;;;;5074224;28;20111;-74
2024/03/14 03:07:43;;;;;;;34.92;24.02;;;;;;;;;;5074280;28;20099;-74
2024/03/14 03:10:11;;;;;;;31.33;23.63;;;;;;;;;;5075902;28;20028;-74
2024/03/14 03:12:39;;;;;;;33.13;22.77;;;;;;;;;;5075422;28;20039;-74
2024/03/14 03:15:05;;;;;;;28.65;21.15;;;;;;;;;;5075327;28;20039;-74
2024/03/14 03:17:31;;;;;;;31.17;21.58;;;;;;;;;;5075505;28;20055;-76
2024/03/14 03:19:56;;;;;;;34.00;22.98;;;;;;;;;;5075677;28;20032;-75
2024/03/14 03:22:22;;;;;;;32.60;21.83;;;;;;;;;;5074978;28;20044;-75
2024/03/14 03:24:47;;;;;;;32.95;22.48;;;;;;;;;;5073607;28;20028;-75
2024/03/14 03:27:16;;;;;;;29.42;21.75;;;;;;;;;;5075679;28;20024;-74
2024/03/14 03:29:41;;;;;;;29.55;20.40;;;;;;;;;;5075047;28;20107;-73
2024/03/14 03:32:06;;;;;;;30.70;20.55;;;;;;;;;;5074971;28;20068;-74
2024/03/14 03:34:32;;;;;;;30.92;21.35;;;;;;;;;;5073498;28;20127;-76
2024/03/14 03:36:58;;;;;;;32.92;21.83;;;;;;;;;;5074975;28;20040;-77
2024/03/14 03:39:26;;;;;;;27.27;19.75;;;;;;;;;;5087171;28;20032;-79
2024/03/14 03:41:55;;;;;;;27.95;18.48;;;;;;;;;;5074751;28;20036;-79
2024/03/14 03:44:21;;;;;;;22.98;16.92;;;;;;;;;;5074885;28;20028;-77
2024/03/14 03:46:48;;;;;;;27.67;19.55;;;;;;;;;;5074962;28;20544;-78
2024/03/14 03:49:15;;;;;;;25.90;18.52;;;;;;;;;;5091030;28;20026;-73
2024/03/14 03:51:41;;;;;;;28.75;19.15;;;;;;;;;;5074416;28;20041;-77
2024/03/14 03:54:12;;;;;;;29.52;20.50;;;;;;;;;;5079706;28;20454;-76
2024/03/14 03:56:40;;;;;;;31.33;21.20;;;;;;;;;;5076610;28;20486;-75
2024/03/14 03:59:14;;;;;;;30.90;21.23;;;;;;;;;;5077250;28;20035;-81
2024/03/14 04:01:40;;;;;;;27.70;19.20;;;;;;;;;;5099020;28;20063;-77
2024/03/14 04:04:08;;;;;;;27.52;18.50;;;;;;;;;;5094486;28;20078;-77
2024/03/14 04:06:33;;;;;;;24.95;18.25;;;;;;;;;;5094557;28;20024;-77
2024/03/14 04:09:01;;;;;;;24.70;18.25;;;;;;;;;;5094946;28;20455;-77
2024/03/14 04:11:26;;;;;;;27.25;18.02;;;;;;;;;;5076687;28;20055;-77
2024/03/14 04:13:53;;;;;;;23.67;18.13;;;;;;;;;;5094489;28;20036;-77
2024/03/14 04:16:21;;;;;;;24.50;18.02;;;;;;;;;;5094464;28;20035;-77
2024/03/14 04:18:47;;;;;;;31.33;21.63;;;;;;;;;;5094182;28;20040;-78
2024/03/14 04:21:15;;;;;;;38.17;24.25;;;;;;;;;;5077377;28;20039;-78
2024/03/14 04:23:40;;;;;;;33.58;21.35;;;;;;;;;;5094498;28;20036;-76
2024/03/14 04:26:09;;;;;;;27.70;19.40;;;;;;;;;;5094383;28;20024;-75
2024/03/14 04:28:37;;;;;;;25.05;17.83;;;;;;;;;;5094350;28;20028;-79
2024/03/14 04:31:04;;;;;;;26.63;18.83;;;;;;;;;;5076608;28;20028;-80
2024/03/14 04:33:30;;;;;;;30.50;19.75;;;;;;;;;;5094546;28;20127;-77
2024/03/14 04:35:56;;;;;;;28.15;20.33;;;;;;;;;;5094720;28;20059;-77
2024/03/14 04:38:23;;;;;;;30.80;20.50;;;;;;;;;;5081876;28;20174;-76
2024/03/14 04:40:48;;;;;;;30.33;21.15;;;;;;;;;;5072784;28;20020;-76
2024/03/14 04:43:14;;;;;;;30.45;20.98;;;;;;;;;;5072740;28;20119;-76
2024/03/14 04:45:45;;;;;;;30.30;20.67;;;;;;;;;;5073932;28;20060;-76
2024/03/14 04:48:16;;;;;;;36.05;22.75;;;;;;;;;;5056304;28;20499;-76
2024/03/14 04:50:43;;;;;;;38.00;23.90;;;;;;;;;;5074059;28;20112;-76
2024/03/14 04:53:09;;;;;;;31.98;21.45;;;;;;;;;;5073103;28;20547;-78
2024/03/14 04:55:35;;;;;;;30.58;20.50;;;;;;;;;;5089776;28;20127;-72
2024/03/14 04:58:00;;;;;;;32.55;21.17;;;;;;;;;;5092428;28;20055;-73
2024/03/14 05:00:26;;;;;;;33.55;21.95;;;;;;;;;;5092768;28;20172;-70
2024/03/14 05:02:51;;;;;;;31.48;19.77;;;;;;;;;;5092637;28;20052;-70
2024/03/14 05:05:17;;;;;;;32.05;20.63;;;;;;;;;;5092655;28;20071;-70
2024/03/14 05:07:44;;;;;;;35.83;20.52;;;;;;;;;;5093510;28;20050;-70
2024/03/14 05:10:09;;;;;;;30.67;19.77;;;;;;;;;;5075858;28;20028;-70
2024/03/14 05:12:35;;;;;;;28.85;18.65;;;;;;;;;;5093589;28;20092;-71
2024/03/14 05:15:04;;;;;;;25.85;18.10;;;;;;;;;;5094297;28;20410;-71
2024/03/14 05:17:30;;;;;;;25.40;17.98;;;;;;;;;;5110106;28;20032;-71
2024/03/14 05:19:56;;;;;;;27.85;18.45;;;;;;;;;;5094121;28;20042;-71
2024/03/14 05:22:22;;;;;;;26.13;18.85;;;;;;;;;;5095240;28;20028;-72
2024/03/14 05:24:48;;;;;;;31.08;19.60;;;;;;;;;;5094797;28;20028;-73
2024/03/14 05:27:13;;;;;;;31.13;20.40;;;;;;;;;;5097617;28;20013;-70
2024/03/14 05:29:39;;;;;;;34.97;21.27;;;;;;;;;;5097731;28;20119;-75
2024/03/14 05:32:20;;;;;;;38.97;22.52;;;;;;;;;;5097565;28;20111;-74
2024/03/14 05:34:46;;;;;;;31.20;20.25;;;;;;;;;;5097592;28;20028;-74
2024/03/14 05:37:11;;;;;;;35.78;20.77;;;;;;;;;;5097414;28;20465;-73
2024/03/14 05:39:36;;;;;;;33.58;21.65;;;;;;;;;;5097929;28;20359;-73
2024/03/14 05:42:02;;;;;;;35.95;21.48;;;;;;;;;;5097661;28;20067;-75
2024/03/14 05:44:27;;;;;;;41.50;26.70;;;;;;;;;;5095870;28;20028;-74
2024/03/14 05:46:53;;;;;;;46.83;30.38;;;;;;;;;;5096587;28;20044;-69
2024/03/14 05:49:18;;;;;;;45.58;28.40;;;;;;;;;;5097771;28;20103;-69
2024/03/14 05:51:44;;;;;;;46.20;27.75;;;;;;;;;;5096914;28;20478;-69
2024/03/14 05:54:09;;;;;;;49.95;30.83;;;;;;;;;;5097322;28;20048;-69
2024/03/14 05:56:35;;;;;;;33.53;20.65;;;;;;;;;;5097187;28;20119;-62
2024/03/14 05:59:02;;;;;;;26.83;18.13;;;;;;;;;;5079491;28;20040;-64
2024/03/14 06:01:28;;;;;;;27.02;16.70;;;;;;;;;;5096965;28;20020;-64
2024/03/14 06:03:54;;;;;;;30.17;20.05;;;;;;;;;;5097161;28;20028;-64
2024/03/14 06:06:19;;;;;;;31.33;19.92;;;;;;;;;;5061899;28;20031;-72
2024/03/14 06:08:45;;;;;;;30.50;19.92;;;;;;;;;;5096602;28;20024;-72
2024/03/14 06:11:10;;;;;;;31.80;19.83;;;;;;;;;;5096990;28;20345;-72
2024/03/14 06:13:35;;;;;;;32.03;20.23;;;;;;;;;;5096541;28;20032;-72
2024/03/14 06:16:01;;;;;;;35.20;21.08;;;;;;;;;;5097218;28;20517;-64
2024/03/14 06:18:26;;;;;;;29.63;19.50;;;;;;;;;;5096965;28;20040;-64
2024/03/14 06:20:54;;;;;;;31.70;20.02;;;;;;;;;;5078673;28;20049;-64
2024/03/14 06:23:19;;;;;;;31.27;20.33;;;;;;;;;;5112589;28;20067;-64
2024/03/14 06:25:44;;;;;;;29.42;19.10;;;;;;;;;;5078170;28;20059;-64
2024/03/14 06:28:10;;;;;;;28.40;19.08;;;;;;;;;;5096801;28;20032;-64
2024/03/14 06:30:35;;;;;;;28.75;19.63;;;;;;;;;;5096651;28;20008;-64
2024/03/14 06:33:01;;;;;;;31.15;19.70;;;;;;;;;;5096465;28;20033;-64
2024/03/14 06:35:26;;;;;;;25.95;18.95;;;;;;;;;;5096322;28;20484;-64
2024/03/14 06:37:53;;;;;;;29.55;19.10;;;;;;;;;;5111247;28;20040;-64
2024/03/14 06:40:19;;;;;;;25.58;18.70;;;;;;;;;;5096600;28;20056;-64
2024/03/14 06:42:45;;;;;;;24.23;17.63;;;;;;;;;;5096077;28;20043;-64
2024/03/14 06:45:10;;;;;;;23.63;17.88;;;;;;;;;;5096291;28;20479;-64
2024/03/14 06:47:36;;;;;;;25.77;18.63;;;;;;;;;;5095765;28;20012;-64
2024/03/14 06:50:03;;;;;;;26.55;18.45;;;;;;;;;;5095868;28;20028;-64
2024/03/14 06:52:28;;;;;;;25.67;17.50;;;;;;;;;;5096332;28;20016;-64
2024/03/14 06:54:54;;;;;;;26.50;18.52;;;;;;;;;;5111420;28;20117;-64
2024/03/14 06:57:20;;;;;;;25.13;18.15;;;;;;;;;;5094538;28;20084;-64
2024/03/14 06:59:48;;;;;;;26.73;18.75;;;;;;;;;;5094737;28;20460;-64
2024/03/14 07:02:17;;;;;;;30.77;21.90;;;;;;;;;;5095828;28;20459;-64
2024/03/14 07:04:42;;;;;;;28.55;19.98;;;;;;;;;;5106429;22;20056;-64
2024/03/14 07:07:11;;;;;;;27.67;19.83;;;;;;;;;;5094922;28;20031;-64
2024/03/14 07:09:36;;;;;;;33.97;18.70;;;;;;;;;;5094708;28;20028;-64
2024/03/14 07:12:02;;;;;;;27.42;18.73;;;;;;;;;;5094613;28;20032;-64
2024/03/14 07:14:29;;;;;;;27.67;18.23;;;;;;;;;;5094538;28;20032;-64
2024/03/14 07:16:54;;;;;;;27.17;18.45;;;;;;;;;;5094471;28;20031;-64
2024/03/14 07:19:22;;;;;;;27.38;19.42;;;;;;;;;;5094476;28;20054;-64
2024/03/14 07:21:49;;;;;;;28.65;19.20;;;;;;;;;;5095118;28;20017;-64
2024/03/14 07:24:18;;;;;;;31.65;19.20;;;;;;;;;;5095475;28;20034;-64
2024/03/14 07:26:43;;;;;;;30.52;20.88;;;;;;;;;;5095136;28;20471;-64
2024/03/14 07:29:09;;;;;;;23.85;17.52;;;;;;;;;;5095061;28;20094;-64
2024/03/14 07:31:34;;;;;;;23.88;17.58;;;;;;;;;;5095360;28;20039;-71
2024/03/14 07:34:00;;;;;;;38.67;28.38;;;;;;;;;;5094990;28;20494;-72
2024/03/14 07:36:29;;;;;;;28.38;20.48;;;;;;;;;;5095524;28;20032;-72
2024/03/14 07:38:55;;;;;;;31.00;21.07;;;;;;;;;;5095473;28;20039;-72
2024/03/14 07:41:21;;;;;;;24.98;18.83;;;;;;;;;;5095061;28;20024;-72
2024/03/14 07:43:47;;;;;;;26.08;18.80;;;;;;;;;;5093579;28;20086;-72
2024/03/14 07:46:13;;;;;;;29.85;21.13;;;;;;;;;;5095342;28;20020;-72
2024/03/14 07:48:39;;;;;;;24.33;17.77;;;;;;;;;;5094389;28;20522;-72
2024/03/14 07:51:07;;;;;;;33.28;25.33;;;;;;;;;;5095227;28;20102;-72
2024/03/14 07:53:33;;;;;;;73.65;48.78;;;;;;;;;;5095173;28;20016;-72
2024/03/14 07:55:59;;;;;;;47.72;38.90;;;;;;;;;;5093672;28;20028;-72
2024/03/14 07:58:24;;;;;;;37.17;29.45;;;;;;;;;;5095111;28;20046;-72
2024/03/14 08:00:51;;;;;;;23.50;18.17;;;;;;;;;;5095052;28;20028;-72
2024/03/14 08:03:16;;;;;;;24.17;17.92;;;;;;;;;;5094425;28;20020;-64
2024/03/14 08:05:42;;;;;;;28.75;20.10;;;;;;;;;;5094722;28;20088;-64
2024/03/14 08:08:07;;;;;;;53.13;31.80;;;;;;;;;;5093666;28;20024;-65
2024/03/14 08:10:33;;;;;;;43.95;30.98;;;;;;;;;;5097701;28;20020;-65
2024/03/14 08:12:58;;;;;;;37.95;25.00;;;;;;;;;;5097059;28;20032;-65
2024/03/14 08:15:36;;;;;;;27.13;18.55;;;;;;;;;;5095260;28;20032;-64
2024/03/14 08:18:11;;;;;;;39.63;22.42;;;;;;;;;;5094212;28;20491;-64
2024/03/14 08:20:37;;;;;;;31.20;21.10;;;;;;;;;;5076171;28;20032;-64
2024/03/14 08:23:06;;;;;;;51.35;29.73;;;;;;;;;;5094047;28;20031;-64
2024/03/14 08:25:37;;;;;;;52.67;33.58;;;;;;;;;;5094055;28;20035;-64
2024/03/14 08:28:04;;;;;;;40.53;27.00;;;;;;;;;;5094589;28;20024;-64
2024/03/14 08:30:29;;;;;;;34.85;21.08;;;;;;;;;;5094012;28;20028;-64
2024/03/14 08:32:55;;;;;;;35.65;21.67;;;;;;;;;;5108223;22;20040;-72
2024/03/14 08:35:20;;;;;;;29.77;19.67;;;;;;;;;;5093717;28;20090;-72
2024/03/14 08:37:46;;;;;;;27.15;17.70;;;;;;;;;;5093855;28;20438;-72
2024/03/14 08:40:12;;;;;;;26.50;19.45;;;;;;;;;;5094166;28;20108;-72
2024/03/14 08:42:38;;;;;;;34.17;23.52;;;;;;;;;;5093792;28;20032;-72
2024/03/14 08:45:04;;;;;;;32.75;20.65;;;;;;;;;;5093840;28;20024;-72
2024/03/14 08:47:30;;;;;;;31.25;23.20;;;;;;;;;;5094345;28;20375;-72
2024/03/14 08:49:56;;;;;;;27.90;19.08;;;;;;;;;;5093807;28;20120;-72
2024/03/14 08:52:26;;;;;;;24.33;17.15;;;;;;;;;;5094024;28;20064;-72
2024/03/14 08:54:52;;;;;;;24.35;16.17;;;;;;;;;;5075635;28;20058;-72
2024/03/14 08:57:18;;;;;;;25.52;17.27;;;;;;;;;;5094002;28;20027;-72
2024/03/14 08:59:44;;;;;;;28.50;19.42;;;;;;;;;;5093529;28;20047;-72
2024/03/14 09:02:09;;;;;;;27.80;18.52;;;;;;;;;;5093548;28;20476;-72
2024/03/14 09:04:51;;;;;;;43.58;35.10;;;;;;;;;;5101378;22;20038;-64
2024/03/14 09:07:17;;;;;;;36.88;23.85;;;;;;;;;;5051360;28;20056;-72
2024/03/14 09:09:44;;;;;;;32.03;20.42;;;;;;;;;;5053608;28;20029;-72
2024/03/14 09:12:13;;;;;;;23.00;16.00;;;;;;;;;;5053331;28;20033;-72
2024/03/14 09:14:42;;;;;;;25.63;17.30;;;;;;;;;;5053552;28;20032;-72
2024/03/14 09:17:08;;;;;;;22.70;16.50;;;;;;;;;;5052370;28;20380;-72
2024/03/14 09:19:33;;;;;;;28.25;20.27;;;;;;;;;;5053239;28;20108;-72
2024/03/14 09:21:59;;;;;;;29.40;19.95;;;;;;;;;;5053147;28;20435;-72
2024/03/14 09:24:24;;;;;;;28.60;19.42;;;;;;;;;;5053513;28;20025;-72
2024/03/14 09:26:49;;;;;;;28.60;19.00;;;;;;;;;;5052002;28;20518;-72
2024/03/14 09:29:15;;;;;;;29.52;20.60;;;;;;;;;;5053114;28;20025;-72
2024/03/14 09:31:46;;;;;;;26.42;17.60;;;;;;;;;;5053393;28;20037;-72
2024/03/14 09:34:11;;;;;;;29.20;18.05;;;;;;;;;;5053633;28;20068;-64
2024/03/14 09:36:37;;;;;;;24.77;16.73;;;;;;;;;;5053099;28;20061;-64
2024/03/14 09:39:15;;;;;;;28.90;18.42;;;;;;;;;;5053337;28;20037;-64
2024/03/14 09:41:40;;;;;;;33.55;20.02;;;;;;;;;;5052977;28;20366;-64
2024/03/14 09:44:06;;;;;;;28.05;19.02;;;;;;;;;;5052136;28;20048;-64
2024/03/14 09:46:34;;;;;;;27.08;18.00;;;;;;;;;;5053540;28;20033;-64
2024/03/14 09:49:01;;;;;;;29.02;19.45;;;;;;;;;;5052359;28;20396;-64
2024/03/14 09:51:27;;;;;;;29.83;19.80;;;;;;;;;;5052987;28;20431;-64
2024/03/14 09:53:54;;;;;;;26.30;17.58;;;;;;;;;;5052942;28;20029;-64
2024/03/14 09:56:19;;;;;;;27.98;18.60;;;;;;;;;;5053485;28;20071;-64
2024/03/14 09:58:45;;;;;;;26.88;17.98;;;;;;;;;;5052894;28;20037;-64
2024/03/14 10:01:11;;;;;;;34.05;19.90;;;;;;;;;;5051562;28;20037;-64
2024/03/14 10:03:38;;;;;;;34.67;18.63;;;;;;;;;;5051954;28;20458;-64
2024/03/14 10:06:15;;;;;;;25.48;16.83;;;;;;;;;;5052681;28;20068;-64
2024/03/14 10:08:47;;;;;;;30.20;18.23;;;;;;;;;;5052822;28;20037;-64
2024/03/14 10:11:13;;;;;;;25.00;15.13;;;;;;;;;;5053164;28;20416;-64
2024/03/14 10:13:43;;;;;;;30.48;18.02;;;;;;;;;;5056587;28;20040;-64
2024/03/14 10:16:08;;;;;;;29.05;18.30;;;;;;;;;;5055013;28;20447;-64
2024/03/14 10:18:35;;;;;;;23.83;15.38;;;;;;;;;;5056535;28;20096;-64
2024/03/14 10:21:07;;;;;;;25.55;15.40;;;;;;;;;;5056221;28;20461;-64
2024/03/14 10:23:32;;;;;;;21.08;13.82;;;;;;;;;;5055274;28;20055;-64
2024/03/14 10:25:58;;;;;;;24.67;15.20;;;;;;;;;;5056395;28;20013;-64
2024/03/14 10:28:28;;;;;;;21.13;14.50;;;;;;;;;;5056083;28;20033;-64
2024/03/14 10:30:57;;;;;;;23.60;16.00;;;;;;;;;;5056341;28;20029;-64
2024/03/14 10:33:29;;;;;;;27.67;15.85;;;;;;;;;;5054771;28;20056;-64
2024/03/14 10:35:58;;;;;;;21.42;14.13;;;;;;;;;;5055942;28;20052;-64
2024/03/14 10:38:25;;;;;;;18.88;11.77;;;;;;;;;;5056191;28;20048;-64
2024/03/14 10:40:52;;;;;;;15.95;10.45;;;;;;;;;;5054567;28;20024;-64
2024/03/14 10:43:19;;;;;;;13.90;9.57;;;;;;;;;;5054484;28;20370;-64
2024/03/14 10:45:45;;;;;;;14.93;10.55;;;;;;;;;;5056012;28;20040;-64
2024/03/14 10:48:10;;;;;;;18.30;11.85;;;;;;;;;;5056225;28;20033;-64
2024/03/14 10:50:36;;;;;;;14.77;10.15;;;;;;;;;;5055905;28;20029;-64
2024/03/14 10:53:02;;;;;;;14.20;9.60;;;;;;;;;;5055868;28;20029;-64
2024/03/14 10:55:32;;;;;;;17.67;11.93;;;;;;;;;;5055839;28;20108;-65
2024/03/14 10:58:01;;;;;;;16.90;12.38;;;;;;;;;;5056119;28;20041;-78
2024/03/14 11:00:26;;;;;;;13.45;10.57;;;;;;;;;;5057031;28;20361;-64
2024/03/14 11:02:52;;;;;;;20.90;13.48;;;;;;;;;;5080778;22;20143;-72
2024/03/14 11:05:22;;;;;;;19.00;13.40;;;;;;;;;;5075330;28;20021;-72
2024/03/14 11:07:51;;;;;;;17.92;12.30;;;;;;;;;;5075634;28;20055;-72
2024/03/14 11:10:22;;;;;;;15.07;11.07;;;;;;;;;;5075224;28;20468;-72
2024/03/14 11:12:49;;;;;;;14.27;10.27;;;;;;;;;;5075503;28;20128;-72
2024/03/14 11:15:18;;;;;;;14.35;10.07;;;;;;;;;;5075193;28;20083;-72
2024/03/14 11:17:44;;;;;;;16.83;9.90;;;;;;;;;;5075200;28;20032;-72
2024/03/14 11:20:14;;;;;;;15.63;9.88;;;;;;;;;;5075324;28;20571;-72
2024/03/14 11:22:42;;;;;;;14.30;9.70;;;;;;;;;;5074301;28;20051;-72
2024/03/14 11:25:12;;;;;;;18.20;12.63;;;;;;;;;;5073692;28;20063;-72
2024/03/14 11:27:40;;;;;;;15.38;11.07;;;;;;;;;;5074942;28;20143;-72
2024/03/14 11:30:15;;;;;;;20.40;13.20;;;;;;;;;;5075172;28;20036;-72
2024/03/14 11:32:49;;;;;;;17.30;12.52;;;;;;;;;;5057284;28;20032;-72
2024/03/14 11:35:52;;;;;;;15.40;10.43;;;;;;;;;;5075032;28;20044;-72
2024/03/14 11:38:20;;;;;;;18.75;12.95;;;;;;;;;;5013166;28;20466;-72
2024/03/14 11:40:46;;;;;;;21.08;14.73;;;;;;;;;;5063795;28;20484;-72
2024/03/14 11:43:15;;;;;;;23.45;13.40;;;;;;;;;;5074501;28;20024;-72
2024/03/14 11:45:40;;;;;;;17.08;11.77;;;;;;;;;;5074830;28;20012;-72
2024/03/14 11:48:08;;;;;;;17.52;11.88;;;;;;;;;;5074514;28;20095;-72
2024/03/14 11:50:38;;;;;;;24.85;17.63;;;;;;;;;;5074454;28;20043;-72
2024/03/14 11:53:09;;;;;;;23.80;16.85;;;;;;;;;;5074705;28;20415;-72
2024/03/14 11:55:34;;;;;;;25.77;18.05;;;;;;;;;;5074357;28;20035;-72
2024/03/14 11:58:03;;;;;;;24.48;16.90;;;;;;;;;;5074579;28;20044;-72
2024/03/14 12:00:31;;;;;;;23.42;15.18;;;;;;;;;;5056466;28;20032;-72
2024/03/14 12:02:57;;;;;;;21.77;16.23;;;;;;;;;;5060342;28;20052;-72
2024/03/14 12:05:27;;;;;;;20.80;15.45;;;;;;;;;;5036964;28;20017;-72
2024/03/14 12:07:54;;;;;;;21.60;14.93;;;;;;;;;;5054206;28;20029;-72
2024/03/14 12:10:22;;;;;;;41.75;27.27;;;;;;;;;;5054239;28;20013;-72
2024/03/14 12:12:51;;;;;;;27.00;19.58;;;;;;;;;;5054002;28;20082;-72
2024/03/14 12:15:17;;;;;;;28.48;19.67;;;;;;;;;;5054295;28;20037;-72
2024/03/14 12:17:44;;;;;;;42.47;26.75;;;;;;;;;;5036112;28;20393;-72
2024/03/14 12:20:10;;;;;;;73.10;47.95;;;;;;;;;;5054242;28;20033;-72
2024/03/14 12:22:40;;;;;;;113.18;74.78;;;;;;;;;;5036392;28;20078;-72
2024/03/14 12:25:12;;;;;;;140.55;93.13;;;;;;;;;;5054140;28;20029;-72
2024/03/14 12:27:38;;;;;;;82.28;52.55;;;;;;;;;;5053804;28;20025;-72
2024/03/14 12:30:05;;;;;;;60.55;37.35;;;;;;;;;;5054140;28;20093;-72
2024/03/14 12:32:33;;;;;;;105.40;62.95;;;;;;;;;;5054036;28;20048;-72
2024/03/14 12:35:01;;;;;;;52.15;31.92;;;;;;;;;;5035127;28;20434;-72
2024/03/14 12:37:26;;;;;;;38.72;25.63;;;;;;;;;;5036670;28;20461;-72
2024/03/14 12:39:53;;;;;;;36.88;26.67;;;;;;;;;;5053665;28;20025;-72
2024/03/14 12:42:19;;;;;;;39.55;23.10;;;;;;;;;;5053522;28;20392;-65
2024/03/14 12:44:45;;;;;;;30.73;20.30;;;;;;;;;;5035692;28;20025;-65
2024/03/14 12:47:11;;;;;;;28.65;19.60;;;;;;;;;;5053559;28;20025;-64
2024/03/14 12:49:37;;;;;;;31.98;20.52;;;;;;;;;;5053850;28;20113;-64
2024/03/14 12:52:02;;;;;;;37.97;22.08;;;;;;;;;;5054084;28;20040;-64
2024/03/14 12:54:38;;;;;;;33.88;20.23;;;;;;;;;;5054058;28;20029;-64
2024/03/14 12:57:05;;;;;;;42.45;26.05;;;;;;;;;;5053434;28;20044;-64
2024/03/14 12:59:32;;;;;;;46.00;26.15;;;;;;;;;;5035896;28;20033;-72
2024/03/14 13:02:00;;;;;;;44.72;26.67;;;;;;;;;;5053627;28;20493;-72
2024/03/14 13:04:26;;;;;;;34.50;22.08;;;;;;;;;;5053397;28;20056;-72
2024/03/14 13:06:58;;;;;;;41.05;22.60;;;;;;;;;;5053916;28;20458;-72
2024/03/14 13:09:24;;;;;;;38.55;19.58;;;;;;;;;;5053328;28;20036;-72
2024/03/14 13:12:08;;;;;;;37.38;21.02;;;;;;;;;;5053284;28;20468;-72
2024/03/14 13:14:34;;;;;;;46.97;24.58;;;;;;;;;;5053602;28;20044;-72
2024/03/14 13:17:05;;;;;;;40.80;21.50;;;;;;;;;;5053843;28;20033;-72
2024/03/14 13:19:35;;;;;;;31.25;18.42;;;;;;;;;;5053198;28;20492;-72
2024/03/14 13:22:01;;;;;;;33.10;19.25;;;;;;;;;;5053453;28;20037;-72
2024/03/14 13:24:26;;;;;;;33.28;20.63;;;;;;;;;;5053768;28;20033;-72
2024/03/14 13:26:52;;;;;;;29.02;18.50;;;;;;;;;;5053155;28;20018;-72
2024/03/14 13:29:17;;;;;;;28.20;18.08;;;;;;;;;;5051900;28;20484;-72
2024/03/14 13:31:42;;;;;;;27.35;18.02;;;;;;;;;;5035308;28;20072;-64
2024/03/14 13:34:08;;;;;;;34.63;18.60;;;;;;;;;;5052972;28;20028;-64
2024/03/14 13:36:36;;;;;;;25.35;16.77;;;;;;;;;;5053078;28;20036;-64
2024/03/14 13:39:05;;;;;;;27.25;17.90;;;;;;;;;;5053058;28;20025;-64
2024/03/14 13:41:30;;;;;;;25.52;15.63;;;;;;;;;;5052872;28;20548;-64
2024/03/14 13:43:56;;;;;;;23.67;15.98;;;;;;;;;;5053051;28;20043;-64
2024/03/14 13:46:22;;;;;;;25.70;17.02;;;;;;;;;;5054968;28;20063;-64
2024/03/14 13:48:47;;;;;;;23.40;15.57;;;;;;;;;;5055661;28;20075;-64
2024/03/14 13:51:13;;;;;;;30.92;19.00;;;;;;;;;;5057327;28;20037;-64
2024/03/14 13:53:39;;;;;;;22.10;14.80;;;;;;;;;;5057686;28;20021;-64
2024/03/14 13:56:07;;;;;;;20.63;13.50;;;;;;;;;;5057695;28;20025;-64
2024/03/14 13:58:36;;;;;;;23.50;15.80;;;;;;;;;;5040252;28;20017;-65
2024/03/14 14:01:17;;;;;;;19.75;12.73;;;;;;;;;;5039051;28;20060;-64
2024/03/14 14:03:45;;;;;;;19.30;13.98;;;;;;;;;;5057140;28;20029;-64
2024/03/14 14:06:13;;;;;;;21.95;14.70;;;;;;;;;;5056489;28;20532;-64
2024/03/14 14:08:40;;;;;;;20.40;13.82;;;;;;;;;;5056716;28;20154;-64
2024/03/14 14:11:05;;;;;;;20.85;14.35;;;;;;;;;;5055803;28;20040;-64
2024/03/14 14:13:31;;;;;;;26.50;16.48;;;;;;;;;;5056510;28;20032;-64
2024/03/14 14:15:56;;;;;;;26.52;15.25;;;;;;;;;;5056622;28;20036;-64
2024/03/14 14:18:22;;;;;;;21.92;14.32;;;;;;;;;;5055589;28;20096;-64
2024/03/14 14:20:47;;;;;;;31.80;17.63;;;;;;;;;;5038353;28;20468;-64
2024/03/14 14:23:13;;;;;;;29.98;16.35;;;;;;;;;;5056087;28;20519;-64